GHALL EGHQ-EGHH
Flight info
| Callsign | GHALL |
|---|---|
| Flight time | 1h 14m |
| Altitude | 2000 |
| Route | EGHQ DIRECT EGHD DIRECT EGHH |
| Aircraft | P28A/L-NA/NA |
Departure
| Time | 2026-05-05 18:21 |
|---|---|
| Airport | Cornwall Airport Newquay (EGHQ) |
Arrival
| Time | 2026-05-05 19:35 |
|---|---|
| Airport | Bournemouth Airport (EGHH) |
| Time | Latitude | Longitude | Altitude | Speed | Heading |
|---|---|---|---|---|---|
| 2026-05-05 17:53 | 50.44526 | -4.99999 | 329 ft | 0 kts | 48° |
| 2026-05-05 18:05 | 50.44534 | -5.00012 | 327 ft | 5 kts | 218° |
| 2026-05-05 18:06 | 50.44506 | -5.00030 | 329 ft | 6 kts | 210° |
| 2026-05-05 18:06 | 50.44491 | -5.00045 | 330 ft | 10 kts | 206° |
| 2026-05-05 18:06 | 50.44437 | -4.99954 | 333 ft | 8 kts | 120° |
| 2026-05-05 18:06 | 50.44404 | -4.99867 | 336 ft | 11 kts | 121° |
| 2026-05-05 18:07 | 50.44360 | -4.99751 | 338 ft | 14 kts | 120° |
| 2026-05-05 18:07 | 50.44308 | -4.99610 | 345 ft | 15 kts | 120° |
| 2026-05-05 18:07 | 50.44258 | -4.99491 | 345 ft | 7 kts | 148° |
| 2026-05-05 18:07 | 50.44238 | -4.99486 | 345 ft | 1 kts | 183° |
| 2026-05-05 18:08 | 50.44235 | -4.99486 | 345 ft | 3 kts | 183° |
| 2026-05-05 18:08 | 50.44221 | -4.99487 | 346 ft | 0 kts | 183° |
| 2026-05-05 18:15 | 50.44198 | -4.99489 | 346 ft | 9 kts | 183° |
| 2026-05-05 18:15 | 50.44171 | -4.99492 | 346 ft | 0 kts | 183° |
| 2026-05-05 18:19 | 50.44139 | -4.99493 | 347 ft | 7 kts | 181° |
| 2026-05-05 18:19 | 50.44088 | -4.99535 | 346 ft | 12 kts | 248° |
| 2026-05-05 18:19 | 50.44158 | -4.99751 | 338 ft | 41 kts | 300° |
| 2026-05-05 18:20 | 50.44371 | -5.00314 | 327 ft | 77 kts | 300° |
| 2026-05-05 18:20 | 50.44665 | -5.01087 | 447 ft | 80 kts | 300° |
| 2026-05-05 18:20 | 50.45000 | -5.01744 | 624 ft | 81 kts | 324° |
| 2026-05-05 18:20 | 50.45514 | -5.01830 | 803 ft | 77 kts | 36° |
| 2026-05-05 18:21 | 50.45760 | -5.01102 | 937 ft | 80 kts | 71° |
| 2026-05-05 18:21 | 50.45844 | -5.00243 | 1111 ft | 77 kts | 91° |
| 2026-05-05 18:21 | 50.45768 | -4.99373 | 1203 ft | 87 kts | 102° |
| 2026-05-05 18:21 | 50.45611 | -4.98393 | 1291 ft | 96 kts | 111° |
| 2026-05-05 18:22 | 50.45285 | -4.97326 | 1064 ft | 124 kts | 112° |
| 2026-05-05 18:22 | 50.45030 | -4.96051 | 1049 ft | 118 kts | 105° |
| 2026-05-05 18:22 | 50.44860 | -4.94809 | 1100 ft | 115 kts | 98° |
| 2026-05-05 18:22 | 50.44860 | -4.93544 | 1101 ft | 116 kts | 85° |
| 2026-05-05 18:23 | 50.44908 | -4.92307 | 1186 ft | 112 kts | 88° |
| 2026-05-05 18:23 | 50.44935 | -4.91109 | 1289 ft | 108 kts | 86° |
| 2026-05-05 18:23 | 50.44984 | -4.89946 | 1362 ft | 109 kts | 88° |
| 2026-05-05 18:23 | 50.45014 | -4.88754 | 1434 ft | 109 kts | 86° |
| 2026-05-05 18:24 | 50.45115 | -4.87592 | 1563 ft | 104 kts | 71° |
| 2026-05-05 18:24 | 50.45550 | -4.86697 | 1611 ft | 107 kts | 47° |
| 2026-05-05 18:24 | 50.45834 | -4.85624 | 1653 ft | 110 kts | 90° |
| 2026-05-05 18:24 | 50.45806 | -4.84351 | 1507 ft | 123 kts | 85° |
| 2026-05-05 18:25 | 50.45904 | -4.83027 | 1493 ft | 118 kts | 83° |
| 2026-05-05 18:25 | 50.45920 | -4.82206 | 1573 ft | 111 kts | 98° |
| 2026-05-05 18:25 | 50.45624 | -4.80741 | 1723 ft | 106 kts | 116° |
| 2026-05-05 18:25 | 50.45323 | -4.79679 | 1769 ft | 109 kts | 110° |
| 2026-05-05 18:26 | 50.45118 | -4.78576 | 1929 ft | 102 kts | 104° |
| 2026-05-05 18:26 | 50.44954 | -4.77487 | 2005 ft | 105 kts | 103° |
| 2026-05-05 18:26 | 50.44748 | -4.76302 | 1930 ft | 117 kts | 107° |
| 2026-05-05 18:26 | 50.44485 | -4.75108 | 1977 ft | 112 kts | 109° |
| 2026-05-05 18:27 | 50.44241 | -4.73958 | 1989 ft | 114 kts | 108° |
| 2026-05-05 18:27 | 50.44060 | -4.72694 | 1848 ft | 121 kts | 99° |
| 2026-05-05 18:27 | 50.44113 | -4.71424 | 1835 ft | 119 kts | 73° |
| 2026-05-05 18:27 | 50.44238 | -4.70151 | 1874 ft | 115 kts | 88° |
| 2026-05-05 18:28 | 50.44308 | -4.67733 | 1974 ft | 110 kts | 100° |
| 2026-05-05 18:28 | 50.44105 | -4.66577 | 2000 ft | 112 kts | 111° |
| 2026-05-05 18:28 | 50.43774 | -4.65466 | 2064 ft | 111 kts | 118° |
| 2026-05-05 18:29 | 50.43450 | -4.64380 | 2121 ft | 111 kts | 110° |
| 2026-05-05 18:29 | 50.43236 | -4.63197 | 2154 ft | 112 kts | 104° |
| 2026-05-05 18:29 | 50.43161 | -4.61987 | 2173 ft | 114 kts | 85° |
| 2026-05-05 18:29 | 50.43218 | -4.60744 | 2216 ft | 113 kts | 88° |
| 2026-05-05 18:30 | 50.43187 | -4.59528 | 2283 ft | 112 kts | 95° |
| 2026-05-05 18:30 | 50.43093 | -4.58310 | 2330 ft | 112 kts | 98° |
| 2026-05-05 18:30 | 50.42984 | -4.57107 | 2376 ft | 112 kts | 95° |
| 2026-05-05 18:30 | 50.43138 | -4.55886 | 2226 ft | 122 kts | 69° |
| 2026-05-05 18:31 | 50.43211 | -4.54546 | 2112 ft | 124 kts | 91° |
| 2026-05-05 18:31 | 50.43174 | -4.53243 | 2174 ft | 118 kts | 94° |
| 2026-05-05 18:31 | 50.43097 | -4.51926 | 2087 ft | 124 kts | 97° |
| 2026-05-05 18:31 | 50.42977 | -4.50599 | 2095 ft | 121 kts | 99° |
| 2026-05-05 18:32 | 50.42836 | -4.49307 | 2101 ft | 119 kts | 98° |
| 2026-05-05 18:32 | 50.42735 | -4.48044 | 2164 ft | 114 kts | 96° |
| 2026-05-05 18:32 | 50.42563 | -4.46801 | 2091 ft | 119 kts | 96° |
| 2026-05-05 18:32 | 50.42619 | -4.45503 | 2025 ft | 121 kts | 87° |
| 2026-05-05 18:33 | 50.42611 | -4.44206 | 2056 ft | 118 kts | 93° |
| 2026-05-05 18:33 | 50.42536 | -4.42897 | 2007 ft | 122 kts | 96° |
| 2026-05-05 18:33 | 50.42420 | -4.41593 | 1987 ft | 121 kts | 100° |
| 2026-05-05 18:33 | 50.42266 | -4.40292 | 1961 ft | 120 kts | 100° |
| 2026-05-05 18:34 | 50.42144 | -4.39023 | 1994 ft | 117 kts | 97° |
| 2026-05-05 18:34 | 50.42040 | -4.37752 | 2000 ft | 118 kts | 98° |
| 2026-05-05 18:34 | 50.41933 | -4.36491 | 2044 ft | 116 kts | 96° |
| 2026-05-05 18:34 | 50.41850 | -4.35236 | 2063 ft | 116 kts | 95° |
| 2026-05-05 18:35 | 50.41770 | -4.33975 | 2081 ft | 116 kts | 96° |
| 2026-05-05 18:35 | 50.41673 | -4.32685 | 2018 ft | 122 kts | 97° |
| 2026-05-05 18:35 | 50.41565 | -4.31373 | 2032 ft | 120 kts | 98° |
| 2026-05-05 18:35 | 50.41446 | -4.30083 | 2030 ft | 120 kts | 99° |
| 2026-05-05 18:36 | 50.41195 | -4.28869 | 2042 ft | 118 kts | 120° |
| 2026-05-05 18:36 | 50.40913 | -4.27660 | 2021 ft | 118 kts | 102° |
| 2026-05-05 18:36 | 50.40717 | -4.26435 | 2087 ft | 114 kts | 109° |
| 2026-05-05 18:36 | 50.40323 | -4.25341 | 2067 ft | 118 kts | 130° |
| 2026-05-05 18:37 | 50.40046 | -4.24204 | 2065 ft | 116 kts | 84° |
| 2026-05-05 18:37 | 50.40301 | -4.23024 | 2098 ft | 114 kts | 52° |
| 2026-05-05 18:37 | 50.40888 | -4.22141 | 2009 ft | 118 kts | 48° |
| 2026-05-05 18:37 | 50.41233 | -4.21034 | 2023 ft | 118 kts | 77° |
| 2026-05-05 18:38 | 50.41385 | -4.19736 | 1946 ft | 123 kts | 80° |
| 2026-05-05 18:38 | 50.41509 | -4.18428 | 1932 ft | 122 kts | 82° |
| 2026-05-05 18:38 | 50.41607 | -4.17073 | 1918 ft | 125 kts | 85° |
| 2026-05-05 18:38 | 50.41669 | -4.15740 | 1956 ft | 122 kts | 84° |
| 2026-05-05 18:39 | 50.41795 | -4.14401 | 1921 ft | 125 kts | 79° |
| 2026-05-05 18:39 | 50.41962 | -4.13066 | 1903 ft | 124 kts | 78° |
| 2026-05-05 18:39 | 50.42136 | -4.11735 | 1886 ft | 125 kts | 78° |
| 2026-05-05 18:39 | 50.42327 | -4.10411 | 1870 ft | 125 kts | 71° |
| 2026-05-05 18:40 | 50.42659 | -4.09181 | 1886 ft | 120 kts | 65° |
| 2026-05-05 18:40 | 50.43032 | -4.08038 | 1939 ft | 116 kts | 50° |
| 2026-05-05 18:40 | 50.43686 | -4.07259 | 1909 ft | 116 kts | 39° |
| 2026-05-05 18:40 | 50.44024 | -4.06170 | 1875 ft | 123 kts | 84° |
| 2026-05-05 18:41 | 50.43996 | -4.04870 | 2006 ft | 113 kts | 96° |
| 2026-05-05 18:41 | 50.43885 | -4.03653 | 2093 ft | 114 kts | 98° |
| 2026-05-05 18:41 | 50.43802 | -4.02410 | 2149 ft | 115 kts | 92° |
| 2026-05-05 18:41 | 50.43971 | -4.01180 | 2072 ft | 121 kts | 74° |
| 2026-05-05 18:42 | 50.44157 | -3.99944 | 2246 ft | 108 kts | 82° |
| 2026-05-05 18:42 | 50.44278 | -3.98789 | 2334 ft | 111 kts | 71° |
| 2026-05-05 18:42 | 50.44661 | -3.97665 | 2283 ft | 118 kts | 60° |
| 2026-05-05 18:42 | 50.44988 | -3.96560 | 2456 ft | 108 kts | 69° |
| 2026-05-05 18:43 | 50.45284 | -3.95448 | 2429 ft | 114 kts | 66° |
| 2026-05-05 18:43 | 50.45513 | -3.94242 | 2435 ft | 115 kts | 78° |
| 2026-05-05 18:43 | 50.45635 | -3.93028 | 2502 ft | 113 kts | 83° |
| 2026-05-05 18:43 | 50.45724 | -3.91803 | 2536 ft | 113 kts | 84° |
| 2026-05-05 18:44 | 50.45785 | -3.90581 | 2583 ft | 113 kts | 84° |
| 2026-05-05 18:44 | 50.45960 | -3.89382 | 2590 ft | 115 kts | 69° |
| 2026-05-05 18:44 | 50.46237 | -3.88206 | 2637 ft | 113 kts | 70° |
| 2026-05-05 18:44 | 50.46470 | -3.87038 | 2682 ft | 113 kts | 74° |
| 2026-05-05 18:45 | 50.46666 | -3.85850 | 2705 ft | 113 kts | 74° |
| 2026-05-05 18:45 | 50.47091 | -3.84831 | 2660 ft | 115 kts | 41° |
| 2026-05-05 18:45 | 50.47388 | -3.83573 | 2316 ft | 132 kts | 68° |
| 2026-05-05 18:45 | 50.47743 | -3.82341 | 2325 ft | 120 kts | 76° |
| 2026-05-05 18:46 | 50.47886 | -3.81062 | 2356 ft | 116 kts | 78° |
| 2026-05-05 18:46 | 50.48294 | -3.79983 | 2239 ft | 121 kts | 59° |
| 2026-05-05 18:46 | 50.48682 | -3.78814 | 2228 ft | 117 kts | 56° |
| 2026-05-05 18:46 | 50.49142 | -3.77785 | 2283 ft | 114 kts | 53° |
| 2026-05-05 18:47 | 50.49647 | -3.76833 | 2277 ft | 115 kts | 37° |
| 2026-05-05 18:47 | 50.50208 | -3.75887 | 2196 ft | 119 kts | 46° |
| 2026-05-05 18:47 | 50.50809 | -3.75031 | 2228 ft | 115 kts | 43° |
| 2026-05-05 18:47 | 50.51495 | -3.74414 | 2133 ft | 121 kts | 4° |
| 2026-05-05 18:48 | 50.52232 | -3.73885 | 2157 ft | 109 kts | 35° |
| 2026-05-05 18:48 | 50.52925 | -3.73550 | 2107 ft | 116 kts | 347° |
| 2026-05-05 18:48 | 50.53667 | -3.73080 | 1661 ft | 133 kts | 49° |
| 2026-05-05 18:48 | 50.54224 | -3.72079 | 1654 ft | 127 kts | 44° |
| 2026-05-05 18:49 | 50.54786 | -3.71045 | 1600 ft | 121 kts | 51° |
| 2026-05-05 18:49 | 50.55262 | -3.69990 | 1634 ft | 115 kts | 55° |
| 2026-05-05 18:49 | 50.55720 | -3.68946 | 1625 ft | 116 kts | 54° |
| 2026-05-05 18:49 | 50.56161 | -3.67895 | 1610 ft | 115 kts | 60° |
| 2026-05-05 18:50 | 50.56549 | -3.66795 | 1643 ft | 113 kts | 59° |
| 2026-05-05 18:50 | 50.57135 | -3.65974 | 1483 ft | 121 kts | 26° |
| 2026-05-05 18:50 | 50.57873 | -3.65443 | 1580 ft | 110 kts | 31° |
| 2026-05-05 18:50 | 50.58434 | -3.64655 | 1657 ft | 109 kts | 48° |
| 2026-05-05 18:51 | 50.58945 | -3.63764 | 1685 ft | 110 kts | 36° |
| 2026-05-05 18:51 | 50.59657 | -3.63415 | 1730 ft | 109 kts | 7° |
| 2026-05-05 18:51 | 50.60295 | -3.62725 | 1612 ft | 120 kts | 56° |
| 2026-05-05 18:51 | 50.60640 | -3.61581 | 1679 ft | 114 kts | 69° |
| 2026-05-05 18:52 | 50.60898 | -3.60398 | 1688 ft | 114 kts | 73° |
| 2026-05-05 18:52 | 50.61086 | -3.59204 | 1762 ft | 111 kts | 78° |
| 2026-05-05 18:52 | 50.61226 | -3.57991 | 1776 ft | 114 kts | 81° |
| 2026-05-05 18:52 | 50.61336 | -3.56758 | 1821 ft | 113 kts | 82° |
| 2026-05-05 18:53 | 50.61425 | -3.55548 | 1909 ft | 110 kts | 89° |
| 2026-05-05 18:53 | 50.61417 | -3.54305 | 1847 ft | 116 kts | 89° |
| 2026-05-05 18:53 | 50.61478 | -3.53042 | 1830 ft | 117 kts | 68° |
| 2026-05-05 18:53 | 50.61877 | -3.51899 | 1606 ft | 125 kts | 84° |
| 2026-05-05 18:54 | 50.61838 | -3.50597 | 1682 ft | 115 kts | 95° |
| 2026-05-05 18:54 | 50.61765 | -3.49367 | 1735 ft | 112 kts | 95° |
| 2026-05-05 18:54 | 50.61699 | -3.48159 | 1790 ft | 110 kts | 94° |
| 2026-05-05 18:54 | 50.61681 | -3.46937 | 1780 ft | 114 kts | 90° |
| 2026-05-05 18:55 | 50.61674 | -3.46117 | 1826 ft | 112 kts | 91° |
| 2026-05-05 18:55 | 50.61644 | -3.44521 | 1915 ft | 111 kts | 92° |
| 2026-05-05 18:55 | 50.61608 | -3.43297 | 1956 ft | 112 kts | 93° |
| 2026-05-05 18:55 | 50.61563 | -3.42087 | 2025 ft | 110 kts | 94° |
| 2026-05-05 18:56 | 50.61530 | -3.41285 | 2056 ft | 111 kts | 94° |
| 2026-05-05 18:56 | 50.61466 | -3.40068 | 2117 ft | 111 kts | 95° |
| 2026-05-05 18:56 | 50.61392 | -3.38857 | 2180 ft | 111 kts | 96° |
| 2026-05-05 18:56 | 50.61320 | -3.37640 | 2234 ft | 112 kts | 95° |
| 2026-05-05 18:57 | 50.61265 | -3.36422 | 2300 ft | 111 kts | 92° |
| 2026-05-05 18:57 | 50.61346 | -3.35202 | 2327 ft | 113 kts | 79° |
| 2026-05-05 18:57 | 50.61516 | -3.34003 | 2401 ft | 111 kts | 76° |
| 2026-05-05 18:57 | 50.61722 | -3.32843 | 2446 ft | 112 kts | 72° |
| 2026-05-05 18:58 | 50.61968 | -3.31679 | 2492 ft | 112 kts | 70° |
| 2026-05-05 18:58 | 50.62249 | -3.30539 | 2539 ft | 112 kts | 67° |
| 2026-05-05 18:58 | 50.62567 | -3.29420 | 2592 ft | 112 kts | 64° |
| 2026-05-05 18:58 | 50.62900 | -3.28313 | 2636 ft | 112 kts | 67° |
| 2026-05-05 18:59 | 50.63126 | -3.27134 | 2676 ft | 113 kts | 77° |
| 2026-05-05 18:59 | 50.63245 | -3.25918 | 2731 ft | 112 kts | 84° |
| 2026-05-05 18:59 | 50.63287 | -3.24688 | 2777 ft | 112 kts | 89° |
| 2026-05-05 18:59 | 50.63270 | -3.23455 | 2824 ft | 112 kts | 93° |
| 2026-05-05 19:00 | 50.63205 | -3.22227 | 2869 ft | 113 kts | 96° |
| 2026-05-05 19:00 | 50.63095 | -3.21005 | 2914 ft | 113 kts | 100° |
| 2026-05-05 19:00 | 50.62942 | -3.19795 | 2959 ft | 113 kts | 103° |
| 2026-05-05 19:00 | 50.62810 | -3.18578 | 2994 ft | 113 kts | 95° |
| 2026-05-05 19:01 | 50.62788 | -3.17338 | 3041 ft | 113 kts | 88° |
| 2026-05-05 19:01 | 50.62844 | -3.16107 | 3085 ft | 113 kts | 83° |
| 2026-05-05 19:01 | 50.62960 | -3.14880 | 3126 ft | 113 kts | 79° |
| 2026-05-05 19:01 | 50.63118 | -3.13693 | 3170 ft | 113 kts | 76° |
| 2026-05-05 19:02 | 50.63320 | -3.12483 | 3210 ft | 113 kts | 73° |
| 2026-05-05 19:02 | 50.63557 | -3.11302 | 3253 ft | 113 kts | 71° |
| 2026-05-05 19:02 | 50.63826 | -3.10138 | 3292 ft | 113 kts | 69° |
| 2026-05-05 19:02 | 50.64092 | -3.08968 | 3333 ft | 113 kts | 70° |
| 2026-05-05 19:03 | 50.64335 | -3.07785 | 3371 ft | 113 kts | 72° |
| 2026-05-05 19:03 | 50.64562 | -3.06596 | 3416 ft | 113 kts | 73° |
| 2026-05-05 19:03 | 50.64787 | -3.05408 | 3460 ft | 113 kts | 73° |
| 2026-05-05 19:03 | 50.65013 | -3.04224 | 3506 ft | 113 kts | 73° |
| 2026-05-05 19:04 | 50.65183 | -3.03008 | 3514 ft | 115 kts | 81° |
| 2026-05-05 19:04 | 50.65259 | -3.01780 | 3657 ft | 111 kts | 81° |
| 2026-05-05 19:04 | 50.65254 | -3.00606 | 3788 ft | 106 kts | 85° |
| 2026-05-05 19:04 | 50.65202 | -2.99412 | 3797 ft | 111 kts | 88° |
| 2026-05-05 19:05 | 50.65109 | -2.98222 | 3866 ft | 110 kts | 92° |
| 2026-05-05 19:05 | 50.64965 | -2.97030 | 3912 ft | 111 kts | 95° |
| 2026-05-05 19:05 | 50.64783 | -2.95836 | 3939 ft | 113 kts | 97° |
| 2026-05-05 19:05 | 50.64570 | -2.94647 | 3974 ft | 113 kts | 99° |
| 2026-05-05 19:06 | 50.64323 | -2.93461 | 4007 ft | 114 kts | 102° |
| 2026-05-05 19:06 | 50.64041 | -2.92291 | 4070 ft | 113 kts | 105° |
| 2026-05-05 19:06 | 50.63729 | -2.91149 | 4119 ft | 114 kts | 107° |
| 2026-05-05 19:06 | 50.63386 | -2.90009 | 4155 ft | 115 kts | 109° |
| 2026-05-05 19:07 | 50.63012 | -2.88888 | 4205 ft | 116 kts | 111° |
| 2026-05-05 19:07 | 50.62635 | -2.87786 | 4243 ft | 116 kts | 110° |
| 2026-05-05 19:07 | 50.62294 | -2.86648 | 4282 ft | 114 kts | 105° |
| 2026-05-05 19:07 | 50.62025 | -2.85484 | 4310 ft | 113 kts | 101° |
| 2026-05-05 19:08 | 50.61795 | -2.84279 | 4314 ft | 115 kts | 99° |
| 2026-05-05 19:08 | 50.61582 | -2.83067 | 4361 ft | 114 kts | 98° |
| 2026-05-05 19:08 | 50.61373 | -2.81871 | 4404 ft | 114 kts | 98° |
| 2026-05-05 19:08 | 50.61165 | -2.80642 | 4397 ft | 118 kts | 98° |
| 2026-05-05 19:09 | 50.60963 | -2.79402 | 4441 ft | 115 kts | 97° |
| 2026-05-05 19:09 | 50.60799 | -2.78143 | 4334 ft | 119 kts | 96° |
| 2026-05-05 19:09 | 50.60681 | -2.76870 | 4282 ft | 115 kts | 91° |
| 2026-05-05 19:09 | 50.60605 | -2.75618 | 4218 ft | 115 kts | 90° |
| 2026-05-05 19:10 | 50.60562 | -2.74369 | 4135 ft | 115 kts | 86° |
| 2026-05-05 19:10 | 50.60539 | -2.73117 | 4064 ft | 114 kts | 86° |
| 2026-05-05 19:10 | 50.60529 | -2.71850 | 3889 ft | 121 kts | 85° |
| 2026-05-05 19:10 | 50.60524 | -2.70508 | 3736 ft | 120 kts | 85° |
| 2026-05-05 19:11 | 50.60510 | -2.69240 | 3725 ft | 114 kts | 86° |
| 2026-05-05 19:11 | 50.60481 | -2.67961 | 3602 ft | 119 kts | 86° |
| 2026-05-05 19:11 | 50.60450 | -2.66670 | 3528 ft | 118 kts | 86° |
| 2026-05-05 19:11 | 50.60424 | -2.65370 | 3392 ft | 119 kts | 85° |
| 2026-05-05 19:12 | 50.60411 | -2.64044 | 3217 ft | 122 kts | 84° |
| 2026-05-05 19:12 | 50.60407 | -2.62723 | 3117 ft | 119 kts | 83° |
| 2026-05-05 19:12 | 50.60421 | -2.61419 | 2987 ft | 119 kts | 82° |
| 2026-05-05 19:12 | 50.60444 | -2.60136 | 2854 ft | 119 kts | 81° |
| 2026-05-05 19:13 | 50.60477 | -2.58826 | 2700 ft | 120 kts | 81° |
| 2026-05-05 19:13 | 50.60519 | -2.57518 | 2571 ft | 119 kts | 80° |
| 2026-05-05 19:13 | 50.60571 | -2.56256 | 2585 ft | 109 kts | 79° |
| 2026-05-05 19:13 | 50.60623 | -2.55089 | 2574 ft | 109 kts | 78° |
| 2026-05-05 19:14 | 50.60682 | -2.53873 | 2526 ft | 111 kts | 78° |
| 2026-05-05 19:14 | 50.60736 | -2.52692 | 2557 ft | 107 kts | 78° |
| 2026-05-05 19:14 | 50.60806 | -2.51512 | 2517 ft | 109 kts | 76° |
| 2026-05-05 19:14 | 50.60903 | -2.50338 | 2497 ft | 108 kts | 74° |
| 2026-05-05 19:15 | 50.61031 | -2.49178 | 2461 ft | 107 kts | 71° |
| 2026-05-05 19:15 | 50.61189 | -2.48058 | 2428 ft | 103 kts | 68° |
| 2026-05-05 19:15 | 50.61397 | -2.46948 | 2301 ft | 108 kts | 66° |
| 2026-05-05 19:15 | 50.61605 | -2.45837 | 2285 ft | 104 kts | 66° |
| 2026-05-05 19:16 | 50.61803 | -2.44728 | 2198 ft | 107 kts | 67° |
| 2026-05-05 19:16 | 50.61983 | -2.43590 | 2112 ft | 106 kts | 69° |
| 2026-05-05 19:16 | 50.62148 | -2.42455 | 2003 ft | 107 kts | 70° |
| 2026-05-05 19:16 | 50.62307 | -2.41309 | 1888 ft | 107 kts | 70° |
| 2026-05-05 19:17 | 50.62460 | -2.40168 | 1779 ft | 106 kts | 70° |
| 2026-05-05 19:17 | 50.62594 | -2.39029 | 1751 ft | 103 kts | 72° |
| 2026-05-05 19:17 | 50.62705 | -2.37948 | 1775 ft | 101 kts | 72° |
| 2026-05-05 19:17 | 50.62834 | -2.36845 | 1747 ft | 103 kts | 71° |
| 2026-05-05 19:18 | 50.62972 | -2.35758 | 1732 ft | 100 kts | 70° |
| 2026-05-05 19:18 | 50.63126 | -2.34685 | 1686 ft | 100 kts | 68° |
| 2026-05-05 19:18 | 50.63334 | -2.33641 | 1594 ft | 100 kts | 62° |
| 2026-05-05 19:18 | 50.63584 | -2.32615 | 1593 ft | 101 kts | 64° |
| 2026-05-05 19:19 | 50.63745 | -2.31523 | 1635 ft | 103 kts | 72° |
| 2026-05-05 19:19 | 50.63821 | -2.30399 | 1729 ft | 103 kts | 77° |
| 2026-05-05 19:19 | 50.63803 | -2.29260 | 1783 ft | 106 kts | 85° |
| 2026-05-05 19:19 | 50.63751 | -2.28088 | 1842 ft | 106 kts | 85° |
| 2026-05-05 19:20 | 50.63693 | -2.26928 | 1907 ft | 106 kts | 86° |
| 2026-05-05 19:20 | 50.63638 | -2.25779 | 1950 ft | 105 kts | 83° |
| 2026-05-05 19:20 | 50.63662 | -2.24642 | 1957 ft | 104 kts | 76° |
| 2026-05-05 19:20 | 50.63748 | -2.23512 | 1996 ft | 103 kts | 72° |
| 2026-05-05 19:21 | 50.63855 | -2.22413 | 2022 ft | 101 kts | 71° |
| 2026-05-05 19:21 | 50.63998 | -2.21312 | 2025 ft | 103 kts | 68° |
| 2026-05-05 19:21 | 50.64170 | -2.20221 | 2086 ft | 101 kts | 69° |
| 2026-05-05 19:21 | 50.64324 | -2.19139 | 2039 ft | 103 kts | 70° |
| 2026-05-05 19:22 | 50.64471 | -2.18026 | 1977 ft | 104 kts | 70° |
| 2026-05-05 19:22 | 50.64616 | -2.16910 | 1917 ft | 105 kts | 72° |
| 2026-05-05 19:22 | 50.64725 | -2.15769 | 1892 ft | 104 kts | 74° |
| 2026-05-05 19:22 | 50.64825 | -2.14638 | 1856 ft | 105 kts | 72° |
| 2026-05-05 19:23 | 50.64949 | -2.13508 | 1818 ft | 103 kts | 71° |
| 2026-05-05 19:23 | 50.65095 | -2.12399 | 1762 ft | 105 kts | 70° |
| 2026-05-05 19:23 | 50.65247 | -2.11273 | 1730 ft | 103 kts | 70° |
| 2026-05-05 19:23 | 50.65358 | -2.10150 | 1683 ft | 106 kts | 73° |
| 2026-05-05 19:24 | 50.65457 | -2.08991 | 1618 ft | 107 kts | 74° |
| 2026-05-05 19:24 | 50.65534 | -2.07833 | 1583 ft | 107 kts | 77° |
| 2026-05-05 19:24 | 50.65581 | -2.06669 | 1563 ft | 105 kts | 78° |
| 2026-05-05 19:24 | 50.65632 | -2.05532 | 1548 ft | 103 kts | 77° |
| 2026-05-05 19:25 | 50.65686 | -2.04390 | 1490 ft | 105 kts | 77° |
| 2026-05-05 19:25 | 50.65756 | -2.03251 | 1447 ft | 104 kts | 75° |
| 2026-05-05 19:25 | 50.65831 | -2.02126 | 1403 ft | 105 kts | 76° |
| 2026-05-05 19:25 | 50.65898 | -2.00975 | 1363 ft | 106 kts | 77° |
| 2026-05-05 19:26 | 50.65975 | -1.99832 | 1355 ft | 104 kts | 76° |
| 2026-05-05 19:26 | 50.66087 | -1.98716 | 1342 ft | 103 kts | 67° |
| 2026-05-05 19:26 | 50.66352 | -1.97689 | 1358 ft | 97 kts | 54° |
| 2026-05-05 19:26 | 50.66709 | -1.96821 | 1336 ft | 94 kts | 45° |
| 2026-05-05 19:27 | 50.67168 | -1.96052 | 1245 ft | 99 kts | 39° |
| 2026-05-05 19:27 | 50.67672 | -1.95326 | 1252 ft | 96 kts | 36° |
| 2026-05-05 19:27 | 50.68175 | -1.94671 | 1242 ft | 95 kts | 33° |
| 2026-05-05 19:27 | 50.68602 | -1.93848 | 1194 ft | 101 kts | 65° |
| 2026-05-05 19:28 | 50.68464 | -1.92770 | 1236 ft | 111 kts | 124° |
| 2026-05-05 19:28 | 50.67764 | -1.92251 | 1234 ft | 116 kts | 179° |
| 2026-05-05 19:28 | 50.67095 | -1.92796 | 1133 ft | 112 kts | 252° |
| 2026-05-05 19:28 | 50.67312 | -1.93807 | 1004 ft | 102 kts | 326° |
| 2026-05-05 19:29 | 50.67916 | -1.94358 | 952 ft | 100 kts | 336° |
| 2026-05-05 19:29 | 50.68549 | -1.94794 | 898 ft | 98 kts | 342° |
| 2026-05-05 19:29 | 50.69195 | -1.95128 | 847 ft | 99 kts | 346° |
| 2026-05-05 19:29 | 50.69852 | -1.95401 | 865 ft | 95 kts | 346° |
| 2026-05-05 19:30 | 50.70496 | -1.95676 | 884 ft | 97 kts | 346° |
| 2026-05-05 19:30 | 50.71161 | -1.95935 | 917 ft | 97 kts | 346° |
| 2026-05-05 19:30 | 50.71800 | -1.96168 | 1018 ft | 92 kts | 348° |
| 2026-05-05 19:30 | 50.72440 | -1.96382 | 1042 ft | 96 kts | 348° |
| 2026-05-05 19:31 | 50.73091 | -1.96618 | 1079 ft | 96 kts | 348° |
| 2026-05-05 19:31 | 50.73753 | -1.96857 | 1075 ft | 98 kts | 349° |
| 2026-05-05 19:31 | 50.74419 | -1.97062 | 1130 ft | 96 kts | 349° |
| 2026-05-05 19:31 | 50.75061 | -1.97093 | 1178 ft | 95 kts | 14° |
| 2026-05-05 19:32 | 50.75576 | -1.96479 | 1269 ft | 95 kts | 49° |
| 2026-05-05 19:32 | 50.75884 | -1.95524 | 1249 ft | 95 kts | 59° |
| 2026-05-05 19:32 | 50.76114 | -1.94561 | 1202 ft | 92 kts | 63° |
| 2026-05-05 19:32 | 50.76326 | -1.93618 | 1156 ft | 91 kts | 66° |
| 2026-05-05 19:33 | 50.76481 | -1.92640 | 1114 ft | 91 kts | 71° |
| 2026-05-05 19:33 | 50.76637 | -1.91680 | 1088 ft | 90 kts | 65° |
| 2026-05-05 19:33 | 50.76851 | -1.90731 | 986 ft | 96 kts | 64° |
| 2026-05-05 19:33 | 50.77071 | -1.89734 | 909 ft | 91 kts | 65° |
| 2026-05-05 19:34 | 50.77237 | -1.88826 | 810 ft | 83 kts | 68° |
| 2026-05-05 19:34 | 50.77390 | -1.87953 | 668 ft | 82 kts | 68° |
| 2026-05-05 19:34 | 50.77535 | -1.87099 | 458 ft | 80 kts | 72° |
| 2026-05-05 19:35 | 50.77802 | -1.85476 | 154 ft | 73 kts | 75° |
| 2026-05-05 19:35 | 50.77919 | -1.84756 | 43 ft | 57 kts | 77° |
| 2026-05-05 19:35 | 50.78010 | -1.84231 | 38 ft | 36 kts | 75° |
| 2026-05-05 19:35 | 50.78061 | -1.83945 | 39 ft | 14 kts | 54° |
| 2026-05-05 19:36 | 50.78138 | -1.83936 | 39 ft | 10 kts | 346° |
| 2026-05-05 19:36 | 50.78196 | -1.83959 | 39 ft | 7 kts | 346° |
| 2026-05-05 19:36 | 50.78243 | -1.83978 | 39 ft | 8 kts | 346° |
| 2026-05-05 19:36 | 50.78314 | -1.84006 | 40 ft | 13 kts | 346° |
| 2026-05-05 19:37 | 50.78411 | -1.84045 | 40 ft | 16 kts | 346° |
| 2026-05-05 19:37 | 50.78531 | -1.84095 | 40 ft | 19 kts | 345° |
| 2026-05-05 19:37 | 50.78662 | -1.84150 | 40 ft | 20 kts | 345° |
| 2026-05-05 19:37 | 50.78788 | -1.84203 | 40 ft | 17 kts | 345° |
| 2026-05-05 19:38 | 50.78820 | -1.84310 | 40 ft | 11 kts | 245° |
| 2026-05-05 19:38 | 50.78791 | -1.84419 | 40 ft | 11 kts | 259° |
| 2026-05-05 19:38 | 50.78778 | -1.84555 | 40 ft | 13 kts | 271° |
| 2026-05-05 19:38 | 50.78769 | -1.84679 | 40 ft | 10 kts | 234° |
| 2026-05-05 19:39 | 50.78745 | -1.84639 | 40 ft | 7 kts | 79° |
| 2026-05-05 19:39 | 50.78753 | -1.84584 | 40 ft | 0 kts | 83° |